Time;durP1;ratioP1;P1;durP2;ratioP2;P2;SDS_P1;SDS_P2;PMS_P1;PMS_P2;Temp;Humidity;BMP_temperature;BMP_pressure;BME280_temperature;BME280_humidity;BME280_pressure;Samples;Min_cycle;Max_cycle;Signal;HPM_P1;HPM_P2
2023/06/20 00:01:20;;;;;;;1999.90;999.90;;;18.90;99.90;;;;;;5077280;28;20486;-74
2023/06/20 00:03:46;;;;;;;1999.90;999.90;;;18.90;99.90;;;;;;5095046;28;20106;-73
2023/06/20 00:06:11;;;;;;;1999.90;999.90;;;18.90;99.90;;;;;;5077278;28;20399;-74
2023/06/20 00:08:37;;;;;;;1999.90;999.90;;;18.90;99.90;;;;;;5077129;28;20447;-74
2023/06/20 00:11:03;;;;;;;1999.90;999.90;;;18.90;99.90;;;;;;5094445;28;20048;-74
2023/06/20 00:13:29;;;;;;;1999.90;999.90;;;18.90;99.90;;;;;;5094696;28;20488;-75
2023/06/20 00:15:57;;;;;;;1999.90;999.90;;;18.90;99.90;;;;;;5094820;28;20059;-74
2023/06/20 00:18:24;;;;;;;1999.90;999.90;;;18.90;99.90;;;;;;5060173;28;20055;-74
2023/06/20 00:20:53;;;;;;;1999.90;999.90;;;18.90;99.90;;;;;;5094889;28;20193;-74
2023/06/20 00:23:24;;;;;;;1999.90;999.90;;;18.90;99.90;;;;;;5094462;28;20051;-75
2023/06/20 00:25:51;;;;;;;1999.90;999.90;;;18.90;99.90;;;;;;5076974;28;20127;-75
2023/06/20 00:28:17;;;;;;;1999.90;999.90;;;18.90;99.90;;;;;;5076164;28;20056;-75
2023/06/20 00:30:43;;;;;;;1999.90;999.90;;;18.80;99.90;;;;;;5076850;28;20064;-74
2023/06/20 00:33:09;;;;;;;1999.90;999.90;;;18.80;99.90;;;;;;5076651;28;20145;-74
2023/06/20 00:35:35;;;;;;;1999.90;999.90;;;18.80;99.90;;;;;;5094364;28;20083;-73
2023/06/20 00:38:03;;;;;;;1999.90;999.90;;;18.80;99.90;;;;;;5059646;28;20051;-74
2023/06/20 00:40:29;;;;;;;1999.90;999.90;;;18.90;99.90;;;;;;5059579;28;20067;-75
2023/06/20 00:42:54;;;;;;;1999.90;999.90;;;18.90;99.90;;;;;;5094214;28;20131;-74
2023/06/20 00:45:31;;;;;;;1999.90;999.90;;;18.80;99.90;;;;;;5076862;28;20139;-74
2023/06/20 00:47:58;;;;;;;1999.90;999.90;;;18.80;99.90;;;;;;5094327;28;20109;-74
2023/06/20 00:50:27;;;;;;;1999.90;999.90;;;18.80;99.90;;;;;;5094053;28;20127;-75
2023/06/20 00:53:00;;;;;;;1999.90;999.90;;;18.80;99.90;;;;;;5094132;28;20476;-73
2023/06/20 00:55:28;;;;;;;1999.90;999.90;;;18.80;99.90;;;;;;5076162;28;20449;-74
2023/06/20 00:57:58;;;;;;;1999.90;999.90;;;18.80;99.90;;;;;;5093413;28;20040;-74
2023/06/20 01:00:25;;;;;;;1999.90;999.90;;;18.80;99.90;;;;;;5093894;28;20496;-74
2023/06/20 01:03:11;;;;;;;1999.90;999.90;;;18.70;99.90;;;;;;5075993;28;20056;-74
2023/06/20 01:05:39;;;;;;;1999.90;999.90;;;18.80;99.90;;;;;;5076550;28;20126;-73
2023/06/20 01:08:14;;;;;;;1999.90;999.90;;;18.70;99.90;;;;;;5093825;28;20051;-74
2023/06/20 01:11:05;;;;;;;1999.90;999.90;;;18.80;99.90;;;;;;5093854;28;20126;-74
2023/06/20 01:13:48;;;;;;;1999.90;999.90;;;18.70;99.90;;;;;;5076014;28;20063;-75
2023/06/20 01:16:42;;;;;;;1999.90;999.90;;;18.70;99.90;;;;;;5076376;28;20392;-74
2023/06/20 01:19:17;;;;;;;1999.90;999.90;;;18.70;99.90;;;;;;5058707;28;20411;-74
2023/06/20 01:21:50;;;;;;;1999.90;999.90;;;18.70;99.90;;;;;;5093094;28;20103;-74
2023/06/20 01:24:33;;;;;;;1999.90;999.90;;;18.70;99.90;;;;;;5059369;28;20051;-74
2023/06/20 01:27:15;;;;;;;1999.90;999.90;;;18.70;99.90;;;;;;5093143;28;20048;-74
2023/06/20 01:30:04;;;;;;;1999.90;999.90;;;18.70;99.90;;;;;;5093655;28;20079;-73
2023/06/20 01:32:32;;;;;;;1999.90;999.90;;;18.70;99.90;;;;;;5076320;28;20048;-73
2023/06/20 01:35:08;;;;;;;1999.90;999.90;;;18.70;99.90;;;;;;5093579;28;20044;-74
2023/06/20 01:37:37;;;;;;;1999.90;999.90;;;18.70;99.90;;;;;;5093687;28;20120;-73
2023/06/20 01:40:05;;;;;;;1999.90;999.90;;;18.70;99.90;;;;;;5093170;28;20480;-73
2023/06/20 01:42:32;;;;;;;1999.90;999.90;;;18.70;99.90;;;;;;5093331;28;20097;-74
2023/06/20 01:45:01;;;;;;;1999.90;999.90;;;18.70;99.90;;;;;;5093496;28;20509;-74
2023/06/20 01:47:29;;;;;;;1999.90;999.90;;;18.60;99.90;;;;;;5093311;28;20484;-73
2023/06/20 01:49:56;;;;;;;1999.90;999.90;;;18.60;99.90;;;;;;5093385;28;20048;-73
2023/06/20 01:52:23;;;;;;;1999.90;999.90;;;18.60;99.90;;;;;;5075453;28;20127;-74
2023/06/20 01:54:50;;;;;;;1999.90;999.90;;;18.60;99.90;;;;;;5093299;28;20097;-73
2023/06/20 01:57:17;;;;;;;1999.90;999.90;;;18.60;99.90;;;;;;5058039;28;20492;-74
2023/06/20 01:59:45;;;;;;;1999.90;999.90;;;18.60;99.90;;;;;;5075289;28;20567;-74
2023/06/20 02:02:12;;;;;;;1999.90;999.90;;;18.60;99.90;;;;;;5075333;28;20526;-74
2023/06/20 02:04:39;;;;;;;1999.90;999.90;;;18.60;99.90;;;;;;5075555;28;20443;-74
2023/06/20 02:07:06;;;;;;;1999.90;999.90;;;18.60;99.90;;;;;;5093314;28;20052;-74
2023/06/20 02:09:32;;;;;;;1999.90;999.90;;;18.60;99.90;;;;;;5075351;28;20044;-74
2023/06/20 02:11:59;;;;;;;1999.90;999.90;;;18.60;99.90;;;;;;5058533;28;20052;-74
2023/06/20 02:14:26;;;;;;;1999.90;999.90;;;18.60;99.90;;;;;;5075887;28;20097;-75
2023/06/20 02:16:54;;;;;;;1999.90;999.90;;;18.60;99.90;;;;;;5075097;28;20048;-74
2023/06/20 02:19:20;;;;;;;1999.90;999.90;;;18.60;99.90;;;;;;5092827;28;20052;-74
2023/06/20 02:21:47;;;;;;;1999.90;999.90;;;18.50;99.90;;;;;;5093234;28;20040;-74
2023/06/20 02:24:19;;;;;;;1999.90;999.90;;;18.60;99.90;;;;;;5075182;28;20056;-75
2023/06/20 02:26:46;;;;;;;1999.90;999.90;;;18.60;99.90;;;;;;5075750;28;20491;-74
2023/06/20 02:29:12;;;;;;;1999.90;999.90;;;18.50;99.90;;;;;;5058018;28;20781;-74
2023/06/20 02:31:45;;;;;;;1999.90;999.90;;;18.50;99.90;;;;;;5093137;28;20056;-74
2023/06/20 02:34:14;;;;;;;1999.90;999.90;;;18.50;99.90;;;;;;5096744;28;20048;-73
2023/06/20 02:36:43;;;;;;;1999.90;999.90;;;18.50;99.90;;;;;;5096616;28;20040;-74
2023/06/20 02:39:09;;;;;;;1999.90;999.90;;;18.50;99.90;;;;;;5079207;28;20055;-74
2023/06/20 02:41:34;;;;;;;1999.90;999.90;;;18.50;99.90;;;;;;5078953;28;20039;-73
2023/06/20 02:44:00;;;;;;;1999.90;999.90;;;18.50;99.90;;;;;;5096692;28;20040;-75
2023/06/20 02:46:48;;;;;;;1999.90;999.90;;;18.40;99.90;;;;;;5078538;28;20502;-75
2023/06/20 02:49:28;;;;;;;1999.90;999.90;;;18.40;99.90;;;;;;5078660;28;20480;-75
2023/06/20 02:52:15;;;;;;;1999.90;999.90;;;18.40;99.90;;;;;;5078731;28;20404;-75
2023/06/20 02:54:48;;;;;;;1999.90;999.90;;;18.40;99.90;;;;;;5096559;28;20044;-75
2023/06/20 02:57:18;;;;;;;1999.90;999.90;;;18.40;99.90;;;;;;5077796;28;20938;-74
2023/06/20 02:59:47;;;;;;;1999.90;999.90;;;18.40;99.90;;;;;;5095967;28;20094;-75
2023/06/20 03:02:16;;;;;;;1999.90;999.90;;;18.30;99.90;;;;;;5061568;28;20048;-76
2023/06/20 03:04:46;;;;;;;1999.90;999.90;;;18.30;99.90;;;;;;5096321;28;20131;-75
2023/06/20 03:07:14;;;;;;;1999.90;999.90;;;18.30;99.90;;;;;;5078230;28;20044;-74
2023/06/20 03:09:40;;;;;;;1999.90;999.90;;;18.30;99.90;;;;;;5078271;28;20135;-75
2023/06/20 03:12:07;;;;;;;1999.90;999.90;;;18.30;99.90;;;;;;5061551;28;20551;-75
2023/06/20 03:14:34;;;;;;;1999.90;999.90;;;18.30;99.90;;;;;;5078491;28;20052;-75
2023/06/20 03:16:59;;;;;;;1999.90;999.90;;;18.30;99.90;;;;;;5078471;28;20049;-74
2023/06/20 03:19:25;;;;;;;1999.90;999.90;;;18.30;99.90;;;;;;5077900;28;20051;-74
2023/06/20 03:21:51;;;;;;;1999.90;999.90;;;18.30;99.90;;;;;;5095953;28;20059;-74
2023/06/20 03:24:17;;;;;;;1999.90;999.90;;;18.30;99.90;;;;;;5078107;28;20059;-75
2023/06/20 03:26:42;;;;;;;1999.90;999.90;;;18.30;99.90;;;;;;5095808;28;20491;-75
2023/06/20 03:29:08;;;;;;;1999.90;999.90;;;18.30;99.90;;;;;;5044172;28;20067;-75
2023/06/20 03:31:34;;;;;;;1999.90;999.90;;;18.20;99.90;;;;;;5095828;28;20062;-74
2023/06/20 03:33:59;;;;;;;1999.90;999.90;;;18.30;99.90;;;;;;5077813;28;20079;-73
2023/06/20 03:36:25;;;;;;;1999.90;999.90;;;18.30;99.90;;;;;;5095750;28;20048;-74
2023/06/20 03:38:51;;;;;;;1999.90;999.90;;;18.30;99.90;;;;;;5095594;28;20109;-74
2023/06/20 03:41:17;;;;;;;1999.90;999.90;;;18.20;99.90;;;;;;5077395;28;20061;-73
2023/06/20 03:43:42;;;;;;;1999.90;999.90;;;18.30;99.90;;;;;;5077184;28;20140;-74
2023/06/20 03:46:08;;;;;;;1999.90;999.90;;;18.30;99.90;;;;;;5095039;28;20041;-74
2023/06/20 03:48:34;;;;;;;1999.90;999.90;;;18.30;99.90;;;;;;5077293;28;20051;-74
2023/06/20 03:50:59;;;;;;;1999.90;999.90;;;18.30;99.90;;;;;;5095504;28;20044;-73
2023/06/20 03:53:25;;;;;;;1999.90;999.90;;;18.30;99.90;;;;;;5095344;28;20055;-74
2023/06/20 03:55:51;;;;;;;1999.90;999.90;;;18.30;99.90;;;;;;5095359;28;20075;-74
2023/06/20 03:58:16;;;;;;;1999.90;999.90;;;18.30;99.90;;;;;;5094569;28;20059;-74
2023/06/20 04:00:42;;;;;;;1999.90;999.90;;;18.30;99.90;;;;;;5077104;28;20052;-74
2023/06/20 04:03:08;;;;;;;1999.90;999.90;;;18.40;99.90;;;;;;5095261;28;20476;-74
2023/06/20 04:05:34;;;;;;;1999.90;999.90;;;18.40;99.90;;;;;;5077261;28;20058;-74
2023/06/20 04:08:01;;;;;;;1999.90;999.90;;;18.40;99.90;;;;;;5095223;28;20044;-74
2023/06/20 04:10:27;;;;;;;1999.90;999.90;;;18.40;99.90;;;;;;5060535;28;20441;-74
2023/06/20 04:12:52;;;;;;;1999.90;999.90;;;18.40;99.90;;;;;;5060028;28;20492;-74
2023/06/20 04:15:18;;;;;;;1999.90;999.90;;;18.40;99.90;;;;;;5095081;28;20051;-74
2023/06/20 04:17:45;;;;;;;1999.90;999.90;;;18.40;99.90;;;;;;5094836;28;20470;-74
2023/06/20 04:20:12;;;;;;;1999.90;999.90;;;18.50;99.90;;;;;;5095121;28;20048;-74
2023/06/20 04:22:44;;;;;;;1999.90;999.90;;;18.50;99.90;;;;;;5095062;28;20056;-74
2023/06/20 04:25:11;;;;;;;1999.90;999.90;;;18.50;99.90;;;;;;5094815;28;20114;-74
2023/06/20 04:27:37;;;;;;;1999.90;999.90;;;18.50;99.90;;;;;;5094193;28;20048;-74
2023/06/20 04:30:05;;;;;;;1999.90;999.90;;;18.50;99.90;;;;;;5094699;28;20127;-74
2023/06/20 04:32:31;;;;;;;1999.90;999.90;;;18.60;99.90;;;;;;5094707;28;20048;-74
2023/06/20 04:34:57;;;;;;;1999.90;999.90;;;18.60;99.90;;;;;;5094737;28;20063;-74
2023/06/20 04:37:22;;;;;;;1999.90;999.90;;;18.60;99.90;;;;;;5059899;28;20391;-73
2023/06/20 04:39:48;;;;;;;1999.90;999.90;;;18.60;99.90;;;;;;5094501;28;20097;-74
2023/06/20 04:42:14;;;;;;;1999.90;999.90;;;18.60;99.90;;;;;;5094213;28;20131;-75
2023/06/20 04:44:40;;;;;;;1999.90;999.90;;;18.60;99.90;;;;;;5043400;28;20503;-74
2023/06/20 04:47:05;;;;;;;1999.90;999.90;;;18.70;99.90;;;;;;5076649;28;20052;-74
2023/06/20 04:49:31;;;;;;;1999.90;999.90;;;18.70;99.90;;;;;;5094306;28;20048;-73
2023/06/20 04:51:57;;;;;;;1999.90;999.90;;;18.70;99.90;;;;;;5094611;28;20047;-73
2023/06/20 04:54:24;;;;;;;1999.90;999.90;;;18.70;99.90;;;;;;5094387;28;20044;-75
2023/06/20 04:56:50;;;;;;;1999.90;999.90;;;18.80;99.90;;;;;;5075036;28;20559;-74
2023/06/20 04:59:16;;;;;;;1999.90;999.90;;;18.80;99.90;;;;;;5093627;28;20123;-75
2023/06/20 05:01:42;;;;;;;1999.90;999.90;;;18.80;99.90;;;;;;5094155;28;20048;-74
2023/06/20 05:04:08;;;;;;;1999.90;999.90;;;18.80;99.90;;;;;;5076389;28;20090;-74
2023/06/20 05:06:33;;;;;;;1999.90;999.90;;;18.90;99.90;;;;;;5094927;28;20131;-73
2023/06/20 05:08:59;;;;;;;1999.90;999.90;;;18.90;99.90;;;;;;5093947;28;20036;-74
2023/06/20 05:11:26;;;;;;;1999.90;999.90;;;19.00;99.90;;;;;;5093833;28;20039;-74
2023/06/20 05:13:51;;;;;;;1999.90;999.90;;;19.00;99.90;;;;;;5094288;28;20048;-74
2023/06/20 05:16:17;;;;;;;1999.90;999.90;;;19.00;99.90;;;;;;5059101;28;20040;-74
2023/06/20 05:18:44;;;;;;;1999.90;999.90;;;19.00;99.90;;;;;;5094115;28;20146;-74
2023/06/20 05:21:10;;;;;;;1999.90;999.90;;;19.10;99.90;;;;;;5076264;28;20059;-73
2023/06/20 05:23:36;;;;;;;1999.90;999.90;;;19.10;99.90;;;;;;5093982;28;20040;-74
2023/06/20 05:26:02;;;;;;;1999.90;999.90;;;19.20;99.90;;;;;;5094875;28;20119;-74
2023/06/20 05:28:27;;;;;;;1999.90;999.90;;;19.20;99.90;;;;;;5094088;28;20097;-74
2023/06/20 05:30:53;;;;;;;1999.90;999.90;;;19.20;99.90;;;;;;5098267;28;20480;-74
2023/06/20 05:33:19;;;;;;;1999.90;999.90;;;19.30;99.90;;;;;;5096720;28;20088;-74
2023/06/20 05:35:46;;;;;;;1999.90;999.90;;;19.40;99.90;;;;;;5097346;28;20408;-74
2023/06/20 05:38:13;;;;;;;1999.90;999.90;;;19.40;99.90;;;;;;5097177;28;20055;-74
2023/06/20 05:40:39;;;;;;;1999.90;999.90;;;19.40;99.90;;;;;;5079644;28;20056;-74
2023/06/20 05:43:04;;;;;;;1999.90;999.90;;;19.50;99.90;;;;;;5096422;28;20048;-74
2023/06/20 05:45:30;;;;;;;1999.90;999.90;;;19.50;99.90;;;;;;5096006;28;20501;-74
2023/06/20 05:47:58;;;;;;;1999.90;999.90;;;19.50;99.90;;;;;;5060827;28;20051;-74
2023/06/20 05:50:25;;;;;;;1999.90;999.90;;;19.60;99.90;;;;;;5075572;28;20097;-74
2023/06/20 05:52:51;;;;;;;1999.90;999.90;;;19.60;99.90;;;;;;5059391;28;20051;-74
2023/06/20 05:55:18;;;;;;;1999.90;999.90;;;19.60;99.90;;;;;;5075620;28;20052;-74
2023/06/20 05:57:43;;;;;;;1999.90;999.90;;;19.70;99.90;;;;;;5092972;28;20508;-74
2023/06/20 06:00:12;;;;;;;1999.90;999.90;;;19.70;99.90;;;;;;5093713;28;20044;-74
2023/06/20 06:02:41;;;;;;;1999.90;999.90;;;19.70;99.90;;;;;;5093634;28;20044;-74
2023/06/20 06:05:07;;;;;;;1999.90;999.90;;;19.70;99.90;;;;;;5093714;28;20094;-74
2023/06/20 06:07:32;;;;;;;1999.90;999.90;;;19.70;99.90;;;;;;5094603;28;20048;-74
2023/06/20 06:09:58;;;;;;;1999.90;999.90;;;19.70;99.90;;;;;;5098842;28;20051;-74
2023/06/20 06:12:24;;;;;;;1999.90;999.90;;;19.80;99.90;;;;;;5097549;28;20043;-75
2023/06/20 06:14:51;;;;;;;1999.90;999.90;;;19.80;99.90;;;;;;5079382;28;20071;-74
2023/06/20 06:17:17;;;;;;;1999.90;999.90;;;19.90;99.90;;;;;;5097505;28;20140;-75
2023/06/20 06:19:43;;;;;;;1999.90;999.90;;;19.90;99.90;;;;;;5096999;28;20118;-74
2023/06/20 06:22:08;;;;;;;1999.90;999.90;;;20.00;99.90;;;;;;5079169;28;20127;-75
2023/06/20 06:24:34;;;;;;;1999.90;999.90;;;20.00;99.90;;;;;;5097330;28;20423;-74
2023/06/20 06:27:00;;;;;;;1999.90;999.90;;;20.10;99.90;;;;;;5079916;28;20047;-74
2023/06/20 06:29:27;;;;;;;1999.90;999.90;;;20.20;99.90;;;;;;5096894;28;20040;-73
2023/06/20 06:31:54;;;;;;;1999.90;999.90;;;20.20;99.90;;;;;;5099913;28;20458;-74
2023/06/20 06:34:20;;;;;;;1999.90;999.90;;;20.30;99.90;;;;;;5067929;28;20073;-75
2023/06/20 06:36:48;;;;;;;1999.90;999.90;;;20.30;99.90;;;;;;5066655;28;20044;-74
2023/06/20 06:39:17;;;;;;;1999.90;999.90;;;20.30;99.90;;;;;;5102593;28;20123;-75
2023/06/20 06:41:49;;;;;;;1999.90;999.90;;;20.40;99.90;;;;;;5099087;28;20127;-75
2023/06/20 06:44:15;;;;;;;1999.90;999.90;;;20.50;99.90;;;;;;5100595;28;20048;-74
2023/06/20 06:46:41;;;;;;;1999.90;999.90;;;20.50;99.90;;;;;;5098508;28;20488;-74
2023/06/20 06:49:08;;;;;;;1999.90;999.90;;;20.50;99.90;;;;;;5078989;28;20047;-75
2023/06/20 06:51:34;;;;;;;1999.90;999.90;;;20.60;99.90;;;;;;5099792;28;20056;-74
2023/06/20 06:54:00;;;;;;;1999.90;999.90;;;20.60;99.90;;;;;;5078956;28;20048;-75
2023/06/20 06:56:26;;;;;;;1999.90;999.90;;;20.70;99.90;;;;;;5078451;28;20052;-75
2023/06/20 06:58:56;;;;;;;1999.90;999.90;;;20.70;99.90;;;;;;5096185;28;20500;-74
2023/06/20 07:01:22;;;;;;;1999.90;999.90;;;20.80;99.90;;;;;;5096621;28;20404;-75
2023/06/20 07:03:47;;;;;;;1999.90;999.90;;;20.90;99.90;;;;;;5096428;28;20047;-75
2023/06/20 07:06:13;;;;;;;1999.90;999.90;;;21.00;99.90;;;;;;5096689;28;20499;-74
2023/06/20 07:08:39;;;;;;;1999.90;999.90;;;21.00;99.90;;;;;;5096599;28;20117;-74
2023/06/20 07:11:05;;;;;;;1999.90;999.90;;;21.10;99.90;;;;;;5078556;28;20040;-75
2023/06/20 07:13:30;;;;;;;1999.90;999.90;;;21.20;99.90;;;;;;5096138;28;20043;-74
2023/06/20 07:15:56;;;;;;;1999.90;999.90;;;21.30;99.90;;;;;;5096303;28;20488;-74
2023/06/20 07:18:22;;;;;;;1999.90;999.90;;;21.30;99.90;;;;;;5096124;28;20071;-75
2023/06/20 07:20:47;;;;;;;1999.90;999.90;;;21.30;99.90;;;;;;5076976;28;20052;-75
2023/06/20 07:23:13;;;;;;;1999.90;999.90;;;21.40;99.90;;;;;;5095961;28;20044;-75
2023/06/20 07:25:39;;;;;;;1999.90;999.90;;;21.40;99.90;;;;;;5095985;28;20043;-75
2023/06/20 07:28:06;;;;;;;1999.90;999.90;;;21.40;99.90;;;;;;5096291;28;20040;-75
2023/06/20 07:30:32;;;;;;;1999.90;999.90;;;21.40;99.90;;;;;;5078472;28;20131;-74
2023/06/20 07:32:58;;;;;;;1999.90;999.90;;;21.50;99.90;;;;;;5095960;28;20084;-73
2023/06/20 07:35:24;;;;;;;1999.90;999.90;;;21.50;99.90;;;;;;5095990;28;20517;-74
2023/06/20 07:37:49;;;;;;;1999.90;999.90;;;21.60;99.90;;;;;;5061651;28;20048;-74
2023/06/20 07:40:15;;;;;;;1999.90;999.90;;;21.60;99.90;;;;;;5095788;28;20059;-74
2023/06/20 07:42:41;;;;;;;1999.90;999.90;;;21.70;99.90;;;;;;5061199;28;20151;-73
2023/06/20 07:45:07;;;;;;;1999.90;999.90;;;21.80;99.90;;;;;;5096017;28;20047;-73
2023/06/20 07:47:33;;;;;;;1999.90;999.90;;;21.80;99.90;;;;;;5095948;28;20488;-74
2023/06/20 07:49:59;;;;;;;1999.90;999.90;;;21.90;99.90;;;;;;5095746;28;20102;-74
2023/06/20 07:52:24;;;;;;;1999.90;999.90;;;21.90;99.90;;;;;;5078259;28;20050;-74
2023/06/20 07:54:50;;;;;;;1999.90;999.90;;;21.90;99.90;;;;;;5077838;28;20090;-74
2023/06/20 07:57:16;;;;;;;1999.90;999.90;;;22.00;99.90;;;;;;5077345;28;20450;-75
2023/06/20 07:59:41;;;;;;;1999.90;999.90;;;22.00;99.90;;;;;;5095433;28;20040;-75
2023/06/20 08:02:07;;;;;;;1999.90;999.90;;;22.00;99.90;;;;;;5095454;28;20055;-74
2023/06/20 08:04:33;;;;;;;1999.90;999.90;;;22.10;99.90;;;;;;5060503;28;20093;-72
2023/06/20 08:06:59;;;;;;;1999.90;999.90;;;22.10;99.90;;;;;;5061002;28;20472;-73
2023/06/20 08:09:24;;;;;;;1999.90;999.90;;;22.10;99.90;;;;;;5095339;28;20047;-73
2023/06/20 08:11:50;;;;;;;1999.90;999.90;;;22.10;99.90;;;;;;5095258;28;20048;-73
2023/06/20 08:14:17;;;;;;;1999.90;999.90;;;22.10;99.90;;;;;;5095162;28;20044;-71
2023/06/20 08:16:43;;;;;;;1999.90;999.90;;;22.00;99.90;;;;;;5094596;28;20100;-72
2023/06/20 08:19:09;;;;;;;1999.90;999.90;;;22.00;99.90;;;;;;5067877;28;20143;-72
2023/06/20 08:21:34;;;;;;;1999.90;999.90;;;22.00;99.90;;;;;;5065359;28;20056;-72
2023/06/20 08:24:00;;;;;;;1999.90;999.90;;;21.90;99.90;;;;;;5067390;28;20048;-72
2023/06/20 08:26:26;;;;;;;1999.90;999.90;;;21.90;99.90;;;;;;5084435;28;20051;-72
2023/06/20 08:28:51;;;;;;;1999.90;999.90;;;21.90;99.90;;;;;;5064983;28;20057;-72
2023/06/20 08:31:17;;;;;;;1999.90;999.90;;;22.00;99.90;;;;;;5084945;28;20101;-72
2023/06/20 08:33:43;;;;;;;1999.90;999.90;;;22.00;99.90;;;;;;5049622;28;20373;-73
2023/06/20 08:36:10;;;;;;;1999.90;999.90;;;22.00;99.90;;;;;;5049127;28;20134;-73
2023/06/20 08:38:36;;;;;;;1999.90;999.90;;;22.10;99.90;;;;;;5084777;28;20040;-72
2023/06/20 08:41:03;;;;;;;1999.90;999.90;;;22.10;99.90;;;;;;5065845;28;20047;-72
2023/06/20 08:43:30;;;;;;;1999.90;999.90;;;22.20;99.90;;;;;;5065149;28;20062;-72
2023/06/20 08:45:56;;;;;;;1999.90;999.90;;;22.20;99.90;;;;;;5084633;28;20404;-73
2023/06/20 08:48:25;;;;;;;1999.90;999.90;;;22.30;99.90;;;;;;5083605;28;20045;-72
2023/06/20 08:50:51;;;;;;;1999.90;999.90;;;22.30;99.90;;;;;;5082713;28;20463;-72
2023/06/20 08:53:18;;;;;;;1999.90;999.90;;;22.40;99.90;;;;;;5070890;28;20036;-73
2023/06/20 08:55:45;;;;;;;1999.90;999.90;;;22.40;99.90;;;;;;5084442;28;20092;-72
2023/06/20 08:58:11;;;;;;;1999.90;999.90;;;22.50;99.90;;;;;;5084083;28;20071;-72
2023/06/20 09:00:40;;;;;;;1999.90;999.90;;;22.50;99.90;;;;;;5082187;28;20554;-73
2023/06/20 09:03:06;;;;;;;1999.90;999.90;;;22.60;99.90;;;;;;5066019;28;20063;-73
2023/06/20 09:05:39;;;;;;;1999.90;999.90;;;22.70;99.90;;;;;;5084579;28;20492;-72
2023/06/20 09:08:06;;;;;;;1999.90;999.90;;;22.70;99.90;;;;;;5084474;28;20068;-73
2023/06/20 09:10:33;;;;;;;1999.90;999.90;;;22.80;99.90;;;;;;5084350;28;20497;-73
2023/06/20 09:12:58;;;;;;;1999.90;999.90;;;22.80;99.90;;;;;;5085530;28;20052;-70
2023/06/20 09:15:26;;;;;;;1999.90;999.90;;;22.80;99.90;;;;;;5084934;28;20071;-72
2023/06/20 09:17:56;;;;;;;1999.90;999.90;;;22.80;99.90;;;;;;5083493;28;20076;-72
2023/06/20 09:20:27;;;;;;;1999.90;999.90;;;22.90;99.90;;;;;;5066357;28;20576;-72
2023/06/20 09:22:53;;;;;;;1999.90;999.90;;;22.90;99.90;;;;;;5084100;28;20049;-71
2023/06/20 09:25:21;;;;;;;1999.90;999.90;;;23.00;99.90;;;;;;5086415;28;20119;-72
2023/06/20 09:27:47;;;;;;;1999.90;999.90;;;23.00;99.90;;;;;;5082886;28;20036;-72
2023/06/20 09:30:12;;;;;;;1999.90;999.90;;;23.00;99.90;;;;;;5084180;28;20048;-72
2023/06/20 09:32:40;;;;;;;1999.90;999.90;;;23.00;99.90;;;;;;5084050;28;20036;-72
2023/06/20 09:35:11;;;;;;;1999.90;999.90;;;23.10;99.90;;;;;;5083051;28;20043;-71
2023/06/20 09:37:36;;;;;;;1999.90;999.90;;;23.10;99.90;;;;;;5083418;28;20496;-71
2023/06/20 09:40:10;;;;;;;1999.90;999.90;;;23.10;99.90;;;;;;5082456;28;20056;-71
2023/06/20 09:42:37;;;;;;;1999.90;999.90;;;23.10;99.90;;;;;;5065519;28;20490;-72
2023/06/20 09:45:04;;;;;;;1999.90;999.90;;;23.10;99.90;;;;;;5082646;28;20083;-71
2023/06/20 09:47:30;;;;;;;1999.90;999.90;;;23.10;99.90;;;;;;5084076;28;20043;-72
2023/06/20 09:49:59;;;;;;;1999.90;999.90;;;23.20;99.90;;;;;;5082385;28;20044;-72
2023/06/20 09:52:36;;;;;;;1999.90;999.90;;;23.20;99.90;;;;;;5066594;28;20044;-72
2023/06/20 09:55:08;;;;;;;1999.90;999.90;;;23.30;99.90;;;;;;5080850;28;20094;-72
2023/06/20 09:58:04;;;;;;;1999.90;999.90;;;23.30;99.90;;;;;;5080175;28;20048;-72
2023/06/20 10:00:31;;;;;;;1999.90;999.90;;;23.40;99.90;;;;;;5050329;28;20059;-72
2023/06/20 10:03:04;;;;;;;1999.90;999.90;;;23.40;99.90;;;;;;5082810;28;20102;-71
2023/06/20 10:05:33;;;;;;;1999.90;999.90;;;23.60;99.90;;;;;;5081857;28;20071;-72
2023/06/20 10:08:00;;;;;;;1999.90;999.90;;;23.70;99.90;;;;;;5069532;28;20044;-72
2023/06/20 10:10:25;;;;;;;1999.90;999.90;;;23.90;99.90;;;;;;5081311;28;20414;-72
2023/06/20 10:12:52;;;;;;;1999.90;999.90;;;24.00;99.90;;;;;;5063026;28;20093;-72
2023/06/20 10:15:18;;;;;;;1999.90;999.90;;;24.10;99.90;;;;;;5083179;28;20040;-71
2023/06/20 10:17:48;;;;;;;1999.90;999.90;;;24.30;99.90;;;;;;5064385;28;20373;-73
2023/06/20 10:20:33;;;;;;;1999.90;999.90;;;24.40;99.90;;;;;;5083256;28;20129;-74
2023/06/20 10:23:05;;;;;;;1999.90;999.90;;;24.60;99.90;;;;;;5083903;28;20084;-74
2023/06/20 10:25:32;;;;;;;1999.90;999.90;;;24.80;99.90;;;;;;5065412;28;20395;-71
2023/06/20 10:28:01;;;;;;;1999.90;999.90;;;24.80;99.90;;;;;;5080953;28;20078;-75
2023/06/20 10:30:55;;;;;;;1999.90;999.90;;;25.00;99.90;;;;;;5082164;28;20123;-73
2023/06/20 10:33:31;;;;;;;1999.90;999.90;;;25.00;99.90;;;;;;5065768;28;20044;-72
2023/06/20 10:36:07;;;;;;;1999.90;999.90;;;25.10;99.90;;;;;;5083636;28;20044;-72
2023/06/20 10:38:37;;;;;;;1999.90;999.90;;;25.10;99.90;;;;;;5084822;28;20044;-72
2023/06/20 10:41:22;;;;;;;1999.90;999.90;;;25.10;99.90;;;;;;5089390;28;20079;-72
2023/06/20 10:43:53;;;;;;;1999.90;999.90;;;25.10;99.90;;;;;;5083479;28;20093;-74
2023/06/20 10:46:35;;;;;;;1999.90;999.90;;;25.20;99.90;;;;;;5065729;28;20427;-76
2023/06/20 10:49:03;;;;;;;1999.90;999.90;;;25.20;99.90;;;;;;5083351;28;20032;-72
2023/06/20 10:51:29;;;;;;;1999.90;999.90;;;25.20;99.90;;;;;;5098501;28;20060;-75
2023/06/20 10:54:09;;;;;;;1999.90;999.90;;;25.20;99.90;;;;;;5063600;28;20047;-75
2023/06/20 10:56:35;;;;;;;1999.90;999.90;;;25.30;99.90;;;;;;5084900;28;20044;-73
2023/06/20 10:59:11;;;;;;;1999.90;999.90;;;25.30;99.90;;;;;;5090118;28;20040;-71
2023/06/20 11:01:37;;;;;;;1999.90;999.90;;;25.30;99.90;;;;;;5086308;28;20054;-73
2023/06/20 11:04:10;;;;;;;1999.90;999.90;;;25.30;99.90;;;;;;5088416;28;20119;-73
2023/06/20 11:06:36;;;;;;;1999.90;999.90;;;25.40;99.90;;;;;;5086599;28;20036;-75
2023/06/20 11:09:03;;;;;;;1999.90;999.90;;;25.50;99.90;;;;;;5086149;28;20032;-72
2023/06/20 11:11:37;;;;;;;1999.90;999.90;;;25.50;99.90;;;;;;5068095;28;20554;-74
2023/06/20 11:14:20;;;;;;;1999.90;999.90;;;25.60;99.90;;;;;;5086950;28;20500;-75
2023/06/20 11:16:48;;;;;;;1999.90;999.90;;;25.60;99.90;;;;;;5087810;28;20040;-75
2023/06/20 11:19:14;;;;;;;1999.90;999.90;;;25.70;99.90;;;;;;5097317;28;20059;-77
2023/06/20 11:21:43;;;;;;;1999.90;999.90;;;25.70;99.90;;;;;;5064011;28;20128;-76
2023/06/20 11:24:08;;;;;;;1999.90;999.90;;;25.80;99.90;;;;;;5066742;28;20037;-76
2023/06/20 11:26:35;;;;;;;1999.90;999.90;;;25.70;99.90;;;;;;5030169;28;20094;-76
2023/06/20 11:29:05;;;;;;;1999.90;999.90;;;25.80;99.90;;;;;;5064859;28;20481;-75
2023/06/20 11:31:32;;;;;;;1999.90;999.90;;;25.80;99.90;;;;;;5072493;28;20087;-75
2023/06/20 11:34:04;;;;;;;1999.90;999.90;;;25.80;99.90;;;;;;5075179;28;20052;-75
2023/06/20 11:36:31;;;;;;;1999.90;999.90;;;25.90;99.90;;;;;;5075313;28;20041;-74
2023/06/20 11:39:07;;;;;;;1999.90;999.90;;;26.00;99.90;;;;;;5074721;28;20072;-69
2023/06/20 11:41:34;;;;;;;1999.90;999.90;;;26.00;99.90;;;;;;5057378;28;20046;-70
2023/06/20 11:44:00;;;;;;;1999.90;999.90;;;26.00;99.90;;;;;;5075175;28;20048;-68
2023/06/20 11:46:26;;;;;;;1999.90;999.90;;;26.10;99.90;;;;;;5056880;28;20441;-69
2023/06/20 11:48:54;;;;;;;1999.90;999.90;;;26.10;99.90;;;;;;5073167;28;20511;-68
2023/06/20 11:51:21;;;;;;;1999.90;999.90;;;26.20;99.90;;;;;;5075093;28;20049;-69
2023/06/20 11:53:47;;;;;;;1999.90;999.90;;;26.20;99.90;;;;;;5074402;28;20048;-68
2023/06/20 11:56:15;;;;;;;1999.90;999.90;;;26.30;99.90;;;;;;5074669;28;20110;-68
2023/06/20 11:58:49;;;;;;;1999.90;999.90;;;26.30;99.90;;;;;;5056869;28;20049;-68
2023/06/20 12:01:22;;;;;;;1999.90;999.90;;;26.30;99.90;;;;;;5075150;28;20040;-69
2023/06/20 12:04:06;;;;;;;1999.90;999.90;;;26.30;99.90;;;;;;5057680;28;20044;-69